Time;durP1;ratioP1;P1;durP2;ratioP2;P2;SDS_P1;SDS_P2;PMS_P1;PMS_P2;Temp;Humidity;BMP_temperature;BMP_pressure;BME280_temperature;BME280_humidity;BME280_pressure;Samples;Min_cycle;Max_cycle;Signal;HPM_P1;HPM_P2
2022/06/03 00:01:23;;;;;;;;;;;25.70;36.00;;;;;;5077914;28;1972;-37
2022/06/03 00:04:03;;;;;;;;;;;25.80;36.00;;;;;;5077795;28;948;-37
2022/06/03 00:06:40;;;;;;;;;;;25.80;36.00;;;;;;5078113;28;945;-39
2022/06/03 00:09:21;;;;;;;;;;;25.80;36.10;;;;;;5078125;28;932;-37
2022/06/03 00:11:58;;;;;;;;;;;25.80;36.10;;;;;;5078413;28;1141;-36
2022/06/03 00:14:40;;;;;;;;;;;25.80;36.10;;;;;;5077849;28;1154;-40
2022/06/03 00:17:10;;;;;;;;;;;25.80;36.10;;;;;;5075273;28;1664;-37
2022/06/03 00:19:46;;;;;;;;;;;25.80;36.20;;;;;;5077701;28;985;-37
2022/06/03 00:22:20;;;;;;;;;;;25.80;36.20;;;;;;5076570;28;1988;-37
2022/06/03 00:24:59;;;;;;;;;;;25.80;36.10;;;;;;5077331;28;984;-37
2022/06/03 00:27:44;;;;;;;;;;;25.80;36.10;;;;;;5077553;28;948;-36
2022/06/03 00:30:18;;;;;;;;;;;25.80;36.20;;;;;;5077836;28;1574;-37
2022/06/03 00:33:08;;;;;;;;;;;25.80;36.10;;;;;;5077088;28;1000;-37
2022/06/03 00:35:41;;;;;;;;;;;25.80;36.10;;;;;;5077642;28;1007;-39
2022/06/03 00:38:16;;;;;;;;;;;25.80;36.00;;;;;;5076334;28;1237;-38
2022/06/03 00:40:54;;;;;;;;;;;25.80;36.10;;;;;;5074772;28;1158;-38
2022/06/03 00:43:30;;;;;;;;;;;25.80;36.10;;;;;;5076244;28;1512;-38
2022/06/03 00:46:02;;;;;;;;;;;25.90;36.10;;;;;;5076822;28;1031;-37
2022/06/03 00:48:42;;;;;;;;;;;25.90;36.20;;;;;;5076511;28;1013;-38
2022/06/03 00:51:29;;;;;;;;;;;25.80;36.10;;;;;;5078041;28;877;-37
2022/06/03 00:54:08;;;;;;;;;;;25.80;36.10;;;;;;5076695;28;987;-38
2022/06/03 00:56:42;;;;;;;;;;;25.80;36.10;;;;;;5076666;28;945;-43
2022/06/03 00:59:16;;;;;;;;;;;25.80;36.10;;;;;;5076953;28;1779;-43
2022/06/03 01:01:46;;;;;;;;;;;25.90;36.20;;;;;;5076676;28;1902;-43
2022/06/03 01:04:30;;;;;;;;;;;25.80;36.20;;;;;;5076410;28;1014;-37
2022/06/03 01:07:03;;;;;;;;;;;25.90;36.20;;;;;;5077221;28;1008;-40
2022/06/03 01:09:35;;;;;;;;;;;25.80;36.10;;;;;;5077254;28;1019;-37
2022/06/03 01:12:10;;;;;;;;;;;25.90;36.20;;;;;;5077164;28;908;-41
2022/06/03 01:14:58;;;;;;;;;;;25.90;36.20;;;;;;5077312;28;1092;-37
2022/06/03 01:17:30;;;;;;;;;;;25.90;36.20;;;;;;5077873;28;944;-39
2022/06/03 01:20:02;;;;;;;;;;;25.90;36.10;;;;;;5076755;28;945;-37
2022/06/03 01:22:51;;;;;;;;;;;25.80;36.10;;;;;;5077439;28;1901;-40
2022/06/03 01:25:30;;;;;;;;;;;25.90;36.20;;;;;;5077826;28;981;-37
2022/06/03 01:28:14;;;;;;;;;;;25.80;36.10;;;;;;5077006;28;999;-38
2022/06/03 01:30:49;;;;;;;;;;;25.80;36.10;;;;;;5076055;28;1759;-38
2022/06/03 01:33:40;;;;;;;;;;;25.90;36.20;;;;;;5076508;28;1062;-37
2022/06/03 01:36:25;;;;;;;;;;;25.80;36.10;;;;;;5055795;28;1014;-38
2022/06/03 01:39:03;;;;;;;;;;;25.90;37.40;;;;;;5077035;28;1035;-39
2022/06/03 01:41:47;;;;;;;;;;;25.80;36.20;;;;;;5077113;28;1906;-37
2022/06/03 01:44:23;;;;;;;;;;;25.80;36.30;;;;;;5076366;28;1767;-37
2022/06/03 01:47:06;;;;;;;;;;;25.90;36.20;;;;;;5076788;28;1037;-37
2022/06/03 01:49:49;;;;;;;;;;;25.90;36.20;;;;;;5076794;28;949;-37
2022/06/03 01:52:31;;;;;;;;;;;25.90;36.20;;;;;;5079846;28;956;-40
2022/06/03 01:55:12;;;;;;;;;;;25.90;36.20;;;;;;5080991;28;1016;-37
2022/06/03 01:57:50;;;;;;;;;;;25.90;36.20;;;;;;5080464;28;1071;-38
2022/06/03 02:00:35;;;;;;;;;;;25.90;36.20;;;;;;5080318;28;929;-39
2022/06/03 02:03:12;;;;;;;;;;;25.90;36.20;;;;;;5079941;28;1914;-36
2022/06/03 02:05:57;;;;;;;;;;;25.90;36.20;;;;;;5080183;28;1158;-38
2022/06/03 02:08:42;;;;;;;;;;;25.90;36.20;;;;;;5080010;28;905;-38
2022/06/03 02:11:20;;;;;;;;;;;25.90;36.20;;;;;;5067487;28;1422;-38
2022/06/03 02:13:59;;;;;;;;;;;25.90;36.20;;;;;;5080195;28;1035;-36
2022/06/03 02:16:40;;;;;;;;;;;25.90;36.30;;;;;;5080299;28;1055;-40
2022/06/03 02:19:18;;;;;;;;;;;25.80;36.20;;;;;;5080350;28;963;-40
2022/06/03 02:25:19;;;;;;;;;;;25.80;36.20;;;;;;5080383;28;892;-38
2022/06/03 02:28:05;;;;;;;;;;;25.90;36.20;;;;;;5080860;28;984;-40
2022/06/03 02:30:48;;;;;;;;;;;25.90;36.20;;;;;;5080635;28;1012;-38
2022/06/03 02:33:30;;;;;;;;;;;25.90;36.20;;;;;;5080947;28;1340;-37
2022/06/03 02:36:20;;;;;;;;;;;25.80;36.20;;;;;;5080269;28;997;-38
2022/06/03 02:38:53;;;;;;;;;;;25.80;36.20;;;;;;5080245;28;972;-38
2022/06/03 02:41:38;;;;;;;;;;;25.80;36.30;;;;;;5079476;28;969;-37
2022/06/03 02:44:23;;;;;;;;;;;25.80;36.20;;;;;;5079967;28;1813;-38
2022/06/03 02:47:02;;;;;;;;;;;25.80;36.20;;;;;;5079781;28;984;-38
2022/06/03 02:49:50;;;;;;;;;;;25.80;36.20;;;;;;5079739;28;921;-37
2022/06/03 02:52:32;;;;;;;;;;;25.90;36.30;;;;;;5080025;28;996;-38
2022/06/03 02:55:19;;;;;;;;;;;25.80;36.20;;;;;;5079633;28;909;-38
2022/06/03 02:57:56;;;;;;;;;;;25.80;36.20;;;;;;5079148;28;971;-39
2022/06/03 03:00:30;;;;;;;;;;;25.90;36.20;;;;;;5078319;28;1407;-37
2022/06/03 03:03:07;;;;;;;;;;;25.80;36.10;;;;;;5078203;28;1894;-38
2022/06/03 03:05:44;;;;;;;;;;;25.80;36.20;;;;;;5079848;28;952;-36
2022/06/03 03:08:32;;;;;;;;;;;25.90;36.20;;;;;;5079768;28;960;-37
2022/06/03 03:11:16;;;;;;;;;;;25.80;36.20;;;;;;5079480;28;1018;-41
2022/06/03 03:14:04;;;;;;;;;;;25.80;36.30;;;;;;5079144;28;1199;-37
2022/06/03 03:16:46;;;;;;;;;;;25.80;36.20;;;;;;5072820;28;1207;-38
2022/06/03 03:19:43;;;;;;;;;;;25.80;36.30;;;;;;5077068;28;1292;-37
2022/06/03 03:22:39;;;;;;;;;;;25.80;36.30;;;;;;4997848;28;1902;-38
2022/06/03 03:25:19;;;;;;;;;;;25.80;36.30;;;;;;5077122;28;1528;-37
2022/06/03 03:28:03;;;;;;;;;;;25.80;36.30;;;;;;5079669;28;1052;-38
2022/06/03 03:30:36;;;;;;;;;;;25.80;36.20;;;;;;5039047;28;1076;-38
2022/06/03 03:33:10;;;;;;;;;;;25.90;36.20;;;;;;5079010;28;964;-41
2022/06/03 03:35:52;;;;;;;;;;;25.80;36.30;;;;;;5079552;28;985;-38
2022/06/03 03:38:35;;;;;;;;;;;25.90;36.30;;;;;;5035561;28;1211;-36
2022/06/03 03:41:22;;;;;;;;;;;25.80;36.30;;;;;;5078566;28;932;-38
2022/06/03 03:44:07;;;;;;;;;;;25.80;36.20;;;;;;5078010;28;1979;-38
2022/06/03 03:46:54;;;;;;;;;;;25.90;36.20;;;;;;5078906;28;1140;-42
2022/06/03 03:49:42;;;;;;;;;;;25.80;37.40;;;;;;5077775;28;975;-42
2022/06/03 03:52:24;;;;;;;;;;;25.80;36.30;;;;;;5070273;28;1055;-43
2022/06/03 03:55:06;;;;;;;;;;;25.80;36.30;;;;;;5077334;28;1006;-43
2022/06/03 03:57:52;;;;;;;;;;;25.80;36.30;;;;;;5076530;28;995;-43
2022/06/03 04:00:32;;;;;;;;;;;25.80;36.30;;;;;;5075923;28;1022;-42
2022/06/03 04:03:17;;;;;;;;;;;25.80;36.30;;;;;;5075903;28;1985;-42
2022/06/03 04:06:05;;;;;;;;;;;25.80;36.30;;;;;;5077322;28;1032;-43
2022/06/03 04:08:56;;;;;;;;;;;25.80;36.30;;;;;;5077968;28;1016;-43
2022/06/03 04:11:41;;;;;;;;;;;25.80;36.30;;;;;;5077579;28;948;-42
2022/06/03 04:14:26;;;;;;;;;;;25.80;36.30;;;;;;5062025;28;1077;-43
2022/06/03 04:17:07;;;;;;;;;;;25.80;36.30;;;;;;5077154;28;1020;-42
2022/06/03 04:19:49;;;;;;;;;;;25.90;36.30;;;;;;5076809;28;917;-42
2022/06/03 04:22:36;;;;;;;;;;;25.90;36.40;;;;;;5032823;28;1910;-43
2022/06/03 04:25:23;;;;;;;;;;;25.80;36.80;;;;;;5076584;28;981;-43
2022/06/03 04:28:00;;;;;;;;;;;25.80;36.30;;;;;;5070890;28;1288;-42
2022/06/03 04:30:48;;;;;;;;;;;25.80;36.40;;;;;;5076463;28;972;-43
2022/06/03 04:33:30;;;;;;;;;;;25.90;36.40;;;;;;5076696;28;1018;-43
2022/06/03 04:36:14;;;;;;;;;;;25.90;36.50;;;;;;5076092;28;989;-41
2022/06/03 04:38:59;;;;;;;;;;;25.90;36.60;;;;;;5075492;28;1025;-43
2022/06/03 04:41:44;;;;;;;;;;;25.90;36.40;;;;;;5075110;28;1000;-43
2022/06/03 04:44:28;;;;;;;;;;;25.90;36.40;;;;;;5075529;28;1976;-43
2022/06/03 04:47:14;;;;;;;;;;;25.90;36.50;;;;;;5074441;28;1016;-42
2022/06/03 04:50:02;;;;;;;;;;;25.90;36.40;;;;;;5074312;28;1016;-42
2022/06/03 04:52:46;;;;;;;;;;;25.80;36.40;;;;;;5040936;28;1163;-43
2022/06/03 04:55:36;;;;;;;;;;;25.90;36.50;;;;;;5074256;28;1023;-42
2022/06/03 04:58:26;;;;;;;;;;;25.90;36.40;;;;;;5075070;28;937;-42
2022/06/03 05:01:22;;;;;;;;;;;25.80;36.40;;;;;;5074028;28;1139;-42
2022/06/03 05:04:03;;;;;;;;;;;25.90;36.40;;;;;;5073227;28;1901;-42
2022/06/03 05:07:00;;;;;;;;;;;25.90;36.40;;;;;;5070420;28;1066;-42
2022/06/03 05:09:54;;;;;;;;;;;25.90;36.40;;;;;;5072993;28;1001;-43
2022/06/03 05:12:45;;;;;;;;;;;25.90;36.40;;;;;;5072729;28;968;-42
2022/06/03 05:15:44;;;;;;;;;;;25.90;36.50;;;;;;5015333;28;1042;-43
2022/06/03 05:18:29;;;;;;;;;;;26.00;36.40;;;;;;5072897;28;1118;-43
2022/06/03 05:21:11;;;;;;;;;;;25.90;36.40;;;;;;5072404;28;1137;-41
2022/06/03 05:23:55;;;;;;;;;;;25.90;36.40;;;;;;5069032;28;2056;-41
2022/06/03 05:26:44;;;;;;;;;;;26.00;36.40;;;;;;5070545;28;1004;-43
2022/06/03 05:29:23;;;;;;;;;;;26.00;36.50;;;;;;5070904;28;969;-43
2022/06/03 05:32:04;;;;;;;;;;;26.00;36.50;;;;;;5072255;28;1097;-43
2022/06/03 05:34:49;;;;;;;;;;;26.00;36.20;;;;;;5072427;28;989;-42
2022/06/03 05:37:34;;;;;;;;;;;26.10;36.20;;;;;;5071241;28;861;-33
2022/06/03 05:40:19;;;;;;;;;;;26.00;37.50;;;;;;5071574;28;1034;-33
2022/06/03 05:42:59;;;;;;;;;;;26.00;36.40;;;;;;5072347;28;1898;-33
2022/06/03 05:45:41;;;;;;;;;;;26.00;36.40;;;;;;5079076;28;1808;-34
2022/06/03 05:48:11;;;;;;;;;;;26.00;36.40;;;;;;5073709;28;963;-33
2022/06/03 05:50:44;;;;;;;;;;;26.10;36.50;;;;;;5072517;28;980;-33
2022/06/03 05:53:15;;;;;;;;;;;26.10;36.30;;;;;;5072787;28;1016;-33
2022/06/03 05:55:47;;;;;;;;;;;26.10;36.40;;;;;;5072478;28;1016;-36
2022/06/03 05:58:35;;;;;;;;;;;26.10;36.50;;;;;;5072896;28;931;-36
2022/06/03 06:01:15;;;;;;;;;;;26.10;36.60;;;;;;5066745;28;1773;-36
2022/06/03 06:03:45;;;;;;;;;;;26.10;36.60;;;;;;5073037;28;1910;-35
2022/06/03 06:06:20;;;;;;;;;;;26.10;36.70;;;;;;5072697;28;1022;-40
2022/06/03 06:08:51;;;;;;;;;;;26.10;37.00;;;;;;5072478;28;925;-42
2022/06/03 06:11:20;;;;;;;;;;;26.20;36.80;;;;;;5072719;28;972;-43
2022/06/03 06:14:06;;;;;;;;;;;26.10;36.70;;;;;;5072215;28;1229;-42
2022/06/03 06:16:36;;;;;;;;;;;26.20;37.00;;;;;;5072112;28;1011;-43
2022/06/03 06:19:05;;;;;;;;;;;26.10;36.80;;;;;;5072568;28;976;-41
2022/06/03 06:21:40;;;;;;;;;;;26.10;36.90;;;;;;5072378;28;1811;-43
2022/06/03 06:24:12;;;;;;;;;;;26.10;37.00;;;;;;5072616;28;1918;-43
2022/06/03 06:26:56;;;;;;;;;;;26.10;37.10;;;;;;5072815;28;1116;-43
2022/06/03 06:29:38;;;;;;;;;;;26.10;37.10;;;;;;5072025;28;1055;-42
2022/06/03 06:32:22;;;;;;;;;;;26.10;37.10;;;;;;5072230;28;929;-42
2022/06/03 06:35:00;;;;;;;;;;;26.10;37.00;;;;;;5073459;28;1023;-42
2022/06/03 06:37:47;;;;;;;;;;;26.10;37.00;;;;;;5073376;28;996;-42
2022/06/03 06:40:21;;;;;;;;;;;26.10;37.00;;;;;;5070109;28;1306;-41
2022/06/03 06:42:53;;;;;;;;;;;26.10;37.00;;;;;;5076304;28;1906;-43
2022/06/03 06:45:27;;;;;;;;;;;26.10;37.00;;;;;;5076559;28;1031;-43
2022/06/03 06:48:01;;;;;;;;;;;26.10;37.10;;;;;;5075935;28;1051;-43
2022/06/03 06:50:28;;;;;;;;;;;26.10;37.00;;;;;;5076913;28;955;-42
2022/06/03 06:52:58;;;;;;;;;;;26.10;37.00;;;;;;5077477;28;960;-43
2022/06/03 06:55:31;;;;;;;;;;;26.10;37.00;;;;;;5076817;28;1257;-43
2022/06/03 06:58:01;;;;;;;;;;;26.10;37.10;;;;;;5076119;28;952;-43
2022/06/03 07:00:29;;;;;;;;;;;26.10;37.10;;;;;;5075612;28;1011;-43
2022/06/03 07:03:00;;;;;;;;;;;26.10;37.10;;;;;;5075918;28;1906;-41
2022/06/03 07:05:30;;;;;;;;;;;26.10;37.10;;;;;;5075670;28;905;-43
2022/06/03 07:07:59;;;;;;;;;;;26.10;37.00;;;;;;5075732;28;1019;-43
2022/06/03 07:10:27;;;;;;;;;;;26.10;37.10;;;;;;5075530;28;996;-43
2022/06/03 07:12:58;;;;;;;;;;;26.10;37.10;;;;;;5075686;28;1072;-43
2022/06/03 07:15:26;;;;;;;;;;;26.10;37.00;;;;;;5075500;28;944;-43
2022/06/03 07:20:56;;;;;;;;;;;26.10;37.00;;;;;;5075792;28;926;-42
2022/06/03 07:23:31;;;;;;;;;;;26.10;37.10;;;;;;5075700;28;1909;-43
2022/06/03 07:26:00;;;;;;;;;;;26.10;37.10;;;;;;5076391;28;1465;-43
2022/06/03 07:28:31;;;;;;;;;;;26.10;37.00;;;;;;5074494;28;972;-43
2022/06/03 07:31:04;;;;;;;;;;;26.10;37.10;;;;;;5074078;28;1010;-41
2022/06/03 07:33:40;;;;;;;;;;;26.10;37.10;;;;;;5073777;28;996;-42
2022/06/03 07:36:11;;;;;;;;;;;26.10;37.10;;;;;;5074559;28;949;-43
2022/06/03 07:38:41;;;;;;;;;;;26.10;37.00;;;;;;5075280;28;961;-43
2022/06/03 07:41:14;;;;;;;;;;;26.10;37.00;;;;;;5075430;28;998;-43
2022/06/03 07:43:44;;;;;;;;;;;26.10;37.00;;;;;;5073749;28;1986;-42
2022/06/03 07:46:13;;;;;;;;;;;26.10;37.10;;;;;;5075216;28;1011;-41
2022/06/03 07:48:42;;;;;;;;;;;26.10;37.10;;;;;;5074175;28;945;-41
2022/06/03 07:51:11;;;;;;;;;;;26.10;37.10;;;;;;5074521;28;1025;-42
2022/06/03 07:53:43;;;;;;;;;;;26.10;37.10;;;;;;5075480;28;997;-43
2022/06/03 07:56:10;;;;;;;;;;;26.20;37.20;;;;;;5074525;28;1098;-42
2022/06/03 07:58:37;;;;;;;;;;;26.20;37.10;;;;;;5075094;28;1082;-43
2022/06/03 08:01:05;;;;;;;;;;;26.10;37.10;;;;;;5072991;28;981;-42
2022/06/03 08:03:36;;;;;;;;;;;26.20;37.20;;;;;;5073633;28;1979;-42
2022/06/03 08:06:05;;;;;;;;;;;26.20;37.10;;;;;;5074518;28;984;-43
2022/06/03 08:11:26;;;;;;;;;;;26.20;37.20;;;;;;5073792;28;931;-42
2022/06/03 08:13:54;;;;;;;;;;;26.20;37.10;;;;;;5075366;28;1525;-42
2022/06/03 08:16:25;;;;;;;;;;;26.20;37.10;;;;;;5073020;28;1016;-43
2022/06/03 08:18:54;;;;;;;;;;;26.20;37.00;;;;;;5074057;28;869;-44
2022/06/03 08:21:24;;;;;;;;;;;26.20;37.00;;;;;;5073929;28;940;-42
2022/06/03 08:23:52;;;;;;;;;;;26.20;37.00;;;;;;5072988;28;1979;-43
2022/06/03 08:26:22;;;;;;;;;;;26.20;37.10;;;;;;5072991;28;1046;-43
2022/06/03 08:28:53;;;;;;;;;;;26.20;37.00;;;;;;5073774;28;969;-42
2022/06/03 08:31:22;;;;;;;;;;;26.20;37.00;;;;;;5074046;28;996;-43
2022/06/03 08:33:50;;;;;;;;;;;26.20;37.00;;;;;;5074390;28;941;-43
2022/06/03 08:36:19;;;;;;;;;;;26.20;37.00;;;;;;5074587;28;1334;-43
2022/06/03 08:38:49;;;;;;;;;;;26.20;37.10;;;;;;5071245;28;923;-43
2022/06/03 08:41:26;;;;;;;;;;;26.20;37.10;;;;;;5073828;28;974;-43
2022/06/03 08:44:02;;;;;;;;;;;26.20;37.10;;;;;;5074426;28;2168;-43
2022/06/03 08:46:29;;;;;;;;;;;26.20;37.00;;;;;;5073988;28;1058;-43
2022/06/03 08:49:00;;;;;;;;;;;26.20;37.10;;;;;;5073352;28;945;-43
2022/06/03 08:51:28;;;;;;;;;;;26.20;37.10;;;;;;5073399;28;992;-43
2022/06/03 08:54:00;;;;;;;;;;;26.20;37.10;;;;;;5073367;28;931;-42
2022/06/03 08:56:32;;;;;;;;;;;26.20;37.00;;;;;;5073769;28;953;-43
2022/06/03 08:59:01;;;;;;;;;;;26.30;37.10;;;;;;5072761;28;1000;-43
2022/06/03 09:01:33;;;;;;;;;;;26.20;37.00;;;;;;5072954;28;1016;-43
2022/06/03 09:04:05;;;;;;;;;;;26.20;37.10;;;;;;5073456;28;1878;-43
2022/06/03 09:06:37;;;;;;;;;;;26.30;37.20;;;;;;5072059;28;1016;-42
2022/06/03 09:09:07;;;;;;;;;;;26.30;37.20;;;;;;5072666;28;937;-43
2022/06/03 09:11:36;;;;;;;;;;;26.30;37.00;;;;;;5072751;28;996;-43
2022/06/03 09:14:05;;;;;;;;;;;26.30;37.00;;;;;;5073409;28;1105;-43
2022/06/03 09:16:35;;;;;;;;;;;26.30;37.00;;;;;;5073810;28;1016;-43
2022/06/03 09:19:04;;;;;;;;;;;26.20;36.90;;;;;;5073179;28;993;-43
2022/06/03 09:21:32;;;;;;;;;;;26.30;37.00;;;;;;5072554;28;989;-43
2022/06/03 09:24:00;;;;;;;;;;;26.30;37.00;;;;;;5072477;28;1942;-42
2022/06/03 09:26:31;;;;;;;;;;;26.30;37.00;;;;;;5073163;28;1002;-43
2022/06/03 09:28:58;;;;;;;;;;;26.30;37.10;;;;;;5073248;28;916;-43
2022/06/03 09:31:26;;;;;;;;;;;26.30;37.10;;;;;;5073444;28;985;-43
2022/06/03 09:33:54;;;;;;;;;;;26.30;37.10;;;;;;5072533;28;940;-40
2022/06/03 09:36:23;;;;;;;;;;;26.30;37.10;;;;;;5074432;28;961;-43
2022/06/03 09:38:52;;;;;;;;;;;26.30;37.10;;;;;;5074044;28;1103;-43
2022/06/03 09:41:20;;;;;;;;;;;26.30;37.10;;;;;;5073782;28;987;-42
2022/06/03 09:43:50;;;;;;;;;;;26.30;37.00;;;;;;5073549;28;1980;-41
2022/06/03 09:46:17;;;;;;;;;;;26.30;37.10;;;;;;5073176;28;973;-43
2022/06/03 09:48:44;;;;;;;;;;;26.40;37.10;;;;;;5072643;28;849;-43
2022/06/03 09:51:15;;;;;;;;;;;26.40;37.10;;;;;;5073276;28;865;-43
2022/06/03 09:53:43;;;;;;;;;;;26.40;38.20;;;;;;5072027;28;988;-42
2022/06/03 09:56:16;;;;;;;;;;;26.40;37.20;;;;;;5072813;28;952;-43
2022/06/03 09:58:44;;;;;;;;;;;26.40;37.20;;;;;;5073147;28;925;-43
2022/06/03 10:01:12;;;;;;;;;;;26.30;37.10;;;;;;5071552;28;1021;-43
2022/06/03 10:03:39;;;;;;;;;;;26.40;37.20;;;;;;5073178;28;1906;-42
2022/06/03 10:06:42;;;;;;;;;;;26.40;37.10;;;;;;5072224;28;877;-43
2022/06/03 10:14:21;;;;;;;;;;;26.40;37.20;;;;;;5074823;28;933;-43
2022/06/03 10:16:49;;;;;;;;;;;26.40;37.10;;;;;;5076435;28;982;-43
2022/06/03 10:19:16;;;;;;;;;;;26.40;37.10;;;;;;5075809;28;991;-44
2022/06/03 10:21:50;;;;;;;;;;;26.40;37.10;;;;;;5075387;28;972;-43
2022/06/03 10:24:17;;;;;;;;;;;26.40;37.10;;;;;;5074615;28;1998;-43
2022/06/03 10:26:49;;;;;;;;;;;26.40;37.20;;;;;;5075208;28;1167;-45
2022/06/03 10:29:16;;;;;;;;;;;26.40;37.10;;;;;;5074915;28;944;-45
2022/06/03 10:31:47;;;;;;;;;;;26.40;37.10;;;;;;5075296;28;998;-43
2022/06/03 10:34:19;;;;;;;;;;;26.50;37.10;;;;;;5075079;28;947;-43
2022/06/03 10:36:48;;;;;;;;;;;26.50;37.20;;;;;;5075045;28;1043;-43
2022/06/03 10:39:15;;;;;;;;;;;26.40;37.10;;;;;;5074050;28;981;-43
2022/06/03 10:41:43;;;;;;;;;;;26.40;37.10;;;;;;5075174;28;1014;-43
2022/06/03 10:44:11;;;;;;;;;;;26.40;37.10;;;;;;5074337;28;1879;-43
2022/06/03 10:46:38;;;;;;;;;;;26.50;37.30;;;;;;5074010;28;1016;-43
2022/06/03 10:49:11;;;;;;;;;;;26.40;37.20;;;;;;5072901;28;1003;-43
2022/06/03 11:02:39;;;;;;;;;;;26.50;37.30;;;;;;5072375;28;795;-43
2022/06/03 11:05:13;;;;;;;;;;;26.50;37.20;;;;;;5072989;28;1878;-42
2022/06/03 11:07:42;;;;;;;;;;;26.40;37.20;;;;;;5073701;28;893;-43
2022/06/03 11:10:10;;;;;;;;;;;26.50;37.30;;;;;;5073942;28;991;-43
2022/06/03 11:12:37;;;;;;;;;;;26.50;37.20;;;;;;5073557;28;1180;-43
2022/06/03 11:15:22;;;;;;;;;;;26.50;37.20;;;;;;5073020;28;984;-43
2022/06/03 11:17:49;;;;;;;;;;;26.50;37.20;;;;;;5073053;28;951;-43
2022/06/03 11:20:18;;;;;;;;;;;26.40;37.20;;;;;;5074650;28;983;-44
2022/06/03 11:22:47;;;;;;;;;;;26.50;37.30;;;;;;5074530;28;1019;-43
2022/06/03 11:25:15;;;;;;;;;;;26.40;37.30;;;;;;5073248;28;1910;-43
2022/06/03 11:27:50;;;;;;;;;;;26.40;37.30;;;;;;5075890;28;1011;-42
2022/06/03 11:30:20;;;;;;;;;;;26.50;37.40;;;;;;5074943;28;991;-43
2022/06/03 11:32:48;;;;;;;;;;;26.40;37.40;;;;;;5075510;28;980;-44
2022/06/03 11:35:19;;;;;;;;;;;26.50;37.50;;;;;;5075679;28;973;-42
2022/06/03 11:37:50;;;;;;;;;;;26.40;37.40;;;;;;5075216;28;979;-43
2022/06/03 11:40:19;;;;;;;;;;;26.50;37.40;;;;;;5075894;28;878;-43
2022/06/03 11:42:51;;;;;;;;;;;26.40;37.40;;;;;;5075375;28;1032;-41
2022/06/03 11:45:19;;;;;;;;;;;26.50;37.50;;;;;;5073921;28;1913;-43
2022/06/03 11:47:50;;;;;;;;;;;26.50;37.40;;;;;;5073813;28;897;-43
2022/06/03 11:50:18;;;;;;;;;;;26.40;37.40;;;;;;5074665;28;842;-43
2022/06/03 11:52:45;;;;;;;;;;;26.50;37.40;;;;;;5074658;28;928;-43
2022/06/03 11:55:13;;;;;;;;;;;26.50;37.40;;;;;;5075419;28;1019;-43
2022/06/03 11:57:41;;;;;;;;;;;26.50;37.40;;;;;;5074857;28;952;-43
2022/06/03 12:00:12;;;;;;;;;;;26.50;37.50;;;;;;5073502;28;1772;-43
2022/06/03 12:02:42;;;;;;;;;;;26.50;37.50;;;;;;5075411;28;964;-42
2022/06/03 12:05:10;;;;;;;;;;;26.50;37.50;;;;;;5076057;28;1906;-43
2022/06/03 12:07:42;;;;;;;;;;;26.50;37.40;;;;;;5076907;28;956;-43
2022/06/03 12:10:12;;;;;;;;;;;26.50;37.50;;;;;;5075630;28;961;-43
2022/06/03 12:15:44;;;;;;;;;;;26.50;37.60;;;;;;5075325;28;853;-42
2022/06/03 12:18:16;;;;;;;;;;;26.50;37.50;;;;;;5075619;28;1044;-42
2022/06/03 12:20:52;;;;;;;;;;;26.50;37.60;;;;;;5074464;28;962;-43
2022/06/03 12:23:49;;;;;;;;;;;26.50;37.50;;;;;;5075259;28;1028;-41
2022/06/03 12:26:20;;;;;;;;;;;26.50;37.50;;;;;;5073412;28;1894;-43
2022/06/03 12:28:50;;;;;;;;;;;26.50;37.50;;;;;;5072649;28;1004;-43
2022/06/03 12:31:33;;;;;;;;;;;26.60;37.60;;;;;;5073669;28;1006;-43
2022/06/03 12:34:11;;;;;;;;;;;26.60;37.50;;;;;;5072435;28;901;-43
2022/06/03 12:36:39;;;;;;;;;;;26.60;37.60;;;;;;5072012;28;924;-42
2022/06/03 12:39:23;;;;;;;;;;;26.60;37.50;;;;;;5073895;28;963;-43
2022/06/03 12:42:04;;;;;;;;;;;26.60;37.50;;;;;;5073651;28;992;-43
2022/06/03 12:44:49;;;;;;;;;;;26.60;37.50;;;;;;5073464;28;2005;-43
2022/06/03 12:47:35;;;;;;;;;;;26.60;37.50;;;;;;5075365;28;991;-43
2022/06/03 12:50:16;;;;;;;;;;;26.60;37.50;;;;;;5074317;28;932;-42
2022/06/03 12:52:45;;;;;;;;;;;26.60;37.60;;;;;;5074450;28;1205;-43
2022/06/03 12:55:19;;;;;;;;;;;26.60;37.60;;;;;;5075087;28;953;-43
2022/06/03 12:57:48;;;;;;;;;;;26.60;37.50;;;;;;5074710;28;1031;-44
2022/06/03 13:00:25;;;;;;;;;;;26.60;37.60;;;;;;5074703;28;991;-41
2022/06/03 13:02:54;;;;;;;;;;;26.60;37.60;;;;;;5075223;28;920;-43
2022/06/03 13:05:27;;;;;;;;;;;26.60;37.60;;;;;;5075455;28;1901;-43
2022/06/03 13:08:03;;;;;;;;;;;26.60;37.60;;;;;;5075067;28;924;-42
2022/06/03 13:10:45;;;;;;;;;;;26.60;37.60;;;;;;5074254;28;1035;-43
2022/06/03 13:13:38;;;;;;;;;;;26.70;37.70;;;;;;5073695;28;1542;-43
2022/06/03 13:16:24;;;;;;;;;;;26.70;37.70;;;;;;5072744;28;999;-43
2022/06/03 13:18:52;;;;;;;;;;;26.70;37.70;;;;;;5073337;28;941;-43
2022/06/03 13:21:23;;;;;;;;;;;26.60;37.60;;;;;;5073202;28;2724;-43
2022/06/03 13:24:08;;;;;;;;;;;26.70;37.60;;;;;;5072265;28;1008;-43
2022/06/03 13:26:50;;;;;;;;;;;26.70;37.70;;;;;;5058032;28;1957;-42
2022/06/03 13:29:31;;;;;;;;;;;26.70;37.70;;;;;;5072253;28;992;-43
2022/06/03 13:32:00;;;;;;;;;;;26.70;37.60;;;;;;5071983;28;1149;-43
2022/06/03 13:34:30;;;;;;;;;;;26.70;37.70;;;;;;5073328;28;847;-43
2022/06/03 13:37:24;;;;;;;;;;;26.70;37.60;;;;;;5071996;28;932;-43
2022/06/03 13:40:07;;;;;;;;;;;26.70;37.50;;;;;;5024655;28;958;-43
2022/06/03 13:43:03;;;;;;;;;;;26.70;37.60;;;;;;5073020;28;1019;-41
2022/06/03 13:45:46;;;;;;;;;;;26.80;37.60;;;;;;5072051;28;1983;-43
2022/06/03 13:48:15;;;;;;;;;;;26.70;37.50;;;;;;5074657;28;941;-38
2022/06/03 13:50:42;;;;;;;;;;;26.90;37.60;;;;;;5075678;28;1015;-41
2022/06/03 13:53:11;;;;;;;;;;;26.80;37.50;;;;;;5076819;28;928;-42
2022/06/03 13:55:47;;;;;;;;;;;26.90;37.50;;;;;;5075382;28;982;-38
2022/06/03 13:58:19;;;;;;;;;;;26.90;37.50;;;;;;5076942;28;980;-40
2022/06/03 14:00:54;;;;;;;;;;;26.90;37.40;;;;;;5074815;28;1027;-39
2022/06/03 14:03:23;;;;;;;;;;;26.90;37.40;;;;;;5076351;28;925;-41
2022/06/03 14:05:56;;;;;;;;;;;26.90;37.40;;;;;;5074438;28;1930;-42
2022/06/03 14:08:27;;;;;;;;;;;27.00;37.50;;;;;;5075162;28;973;-40
2022/06/03 14:10:58;;;;;;;;;;;27.00;37.30;;;;;;5075886;28;916;-40
2022/06/03 14:13:34;;;;;;;;;;;27.00;37.40;;;;;;5076076;28;1088;-41
2022/06/03 14:16:01;;;;;;;;;;;27.00;37.30;;;;;;5065944;28;1004;-40
2022/06/03 14:19:01;;;;;;;;;;;27.10;37.30;;;;;;5073652;28;877;-37
2022/06/03 14:21:33;;;;;;;;;;;27.10;37.30;;;;;;4993776;28;990;-38
2022/06/03 14:24:02;;;;;;;;;;;27.00;37.30;;;;;;4993021;28;969;-40
2022/06/03 14:26:32;;;;;;;;;;;27.10;37.40;;;;;;5033228;28;1898;-39
2022/06/03 14:29:02;;;;;;;;;;;27.10;37.30;;;;;;5075736;28;1009;-41
2022/06/03 14:31:34;;;;;;;;;;;27.20;37.20;;;;;;5074882;28;1018;-43
2022/06/03 14:34:05;;;;;;;;;;;27.20;37.10;;;;;;5075273;28;988;-43
2022/06/03 14:36:31;;;;;;;;;;;27.20;37.10;;;;;;5073043;28;992;-40
2022/06/03 14:39:00;;;;;;;;;;;27.20;37.10;;;;;;5073629;28;1004;-39
2022/06/03 14:41:29;;;;;;;;;;;27.20;37.10;;;;;;5075146;28;997;-41
2022/06/03 14:43:57;;;;;;;;;;;27.20;37.10;;;;;;5074969;28;903;-41
2022/06/03 14:46:29;;;;;;;;;;;27.30;37.20;;;;;;5075087;28;1977;-41
2022/06/03 14:48:57;;;;;;;;;;;27.30;37.10;;;;;;5074030;28;936;-41
2022/06/03 14:51:31;;;;;;;;;;;27.30;37.10;;;;;;5074855;28;1171;-41
2022/06/03 14:54:01;;;;;;;;;;;27.30;37.10;;;;;;5074156;28;925;-41
2022/06/03 14:56:32;;;;;;;;;;;27.30;36.90;;;;;;5074966;28;952;-41
2022/06/03 14:59:00;;;;;;;;;;;27.30;37.00;;;;;;5073055;28;936;-41
2022/06/03 15:01:40;;;;;;;;;;;27.40;37.00;;;;;;5074353;28;920;-40
2022/06/03 15:04:09;;;;;;;;;;;27.40;37.00;;;;;;5074351;28;1016;-41
2022/06/03 15:06:37;;;;;;;;;;;27.40;36.90;;;;;;5074034;28;1903;-41
2022/06/03 15:09:07;;;;;;;;;;;27.40;36.80;;;;;;5074388;28;980;-39
2022/06/03 15:11:37;;;;;;;;;;;27.40;36.80;;;;;;5074184;28;861;-41
2022/06/03 15:14:05;;;;;;;;;;;27.50;36.80;;;;;;5074073;28;1142;-41
2022/06/03 15:16:34;;;;;;;;;;;27.50;37.00;;;;;;5074013;28;1036;-41
2022/06/03 15:19:00;;;;;;;;;;;27.50;36.90;;;;;;5073419;28;1035;-41
2022/06/03 15:21:28;;;;;;;;;;;27.50;36.80;;;;;;5073220;28;1032;-40
2022/06/03 15:23:56;;;;;;;;;;;27.50;36.90;;;;;;5074581;28;881;-42
2022/06/03 15:26:26;;;;;;;;;;;27.50;36.80;;;;;;5074846;28;1973;-42
2022/06/03 15:28:56;;;;;;;;;;;27.50;36.90;;;;;;5075450;28;1016;-41
2022/06/03 15:31:24;;;;;;;;;;;27.50;37.00;;;;;;5073609;28;1020;-40
2022/06/03 15:33:53;;;;;;;;;;;27.40;36.90;;;;;;5073246;28;945;-41
2022/06/03 15:36:21;;;;;;;;;;;27.40;36.90;;;;;;5072823;28;1008;-41
2022/06/03 15:38:49;;;;;;;;;;;27.50;37.00;;;;;;5072998;28;928;-40
2022/06/03 15:41:20;;;;;;;;;;;27.50;36.80;;;;;;5074533;28;1002;-42
2022/06/03 15:43:48;;;;;;;;;;;27.50;37.00;;;;;;5073869;28;924;-40
2022/06/03 15:46:27;;;;;;;;;;;27.50;36.90;;;;;;5075194;28;1901;-40
2022/06/03 15:48:56;;;;;;;;;;;27.50;37.00;;;;;;5074634;28;933;-41
2022/06/03 15:51:23;;;;;;;;;;;27.50;37.00;;;;;;5074300;28;1010;-42
2022/06/03 15:53:51;;;;;;;;;;;27.50;37.00;;;;;;5073277;28;905;-38